Time;durP1;ratioP1;P1;durP2;ratioP2;P2;SDS_P1;SDS_P2;PMS_P1;PMS_P2;Temp;Humidity;BMP_temperature;BMP_pressure;BME280_temperature;BME280_humidity;BME280_pressure;Samples;Min_cycle;Max_cycle;Signal;HPM_P1;HPM_P2
2023/12/09 00:00:30;;;;;;;97.80;35.00;;;;;;;;;;5071488;28;20408;-82
2023/12/09 00:02:56;;;;;;;105.60;34.40;;;;;;;;;;5072169;28;20835;-82
2023/12/09 00:05:22;;;;;;;94.60;32.75;;;;;;;;;;5071975;28;20408;-82
2023/12/09 00:07:48;;;;;;;112.60;34.60;;;;;;;;;;5072406;28;20429;-80
2023/12/09 00:10:14;;;;;;;98.00;32.72;;;;;;;;;;5053345;28;20407;-81
2023/12/09 00:12:40;;;;;;;88.53;32.70;;;;;;;;;;5069051;28;20420;-81
2023/12/09 00:15:06;;;;;;;99.30;32.10;;;;;;;;;;5087274;28;20760;-81
2023/12/09 00:17:32;;;;;;;94.93;32.03;;;;;;;;;;5071714;28;20503;-81
2023/12/09 00:19:59;;;;;;;93.95;31.90;;;;;;;;;;5071731;28;20392;-81
2023/12/09 00:22:25;;;;;;;97.15;32.67;;;;;;;;;;5071280;28;20400;-81
2023/12/09 00:24:51;;;;;;;75.53;32.08;;;;;;;;;;5071444;28;20411;-81
2023/12/09 00:27:17;;;;;;;91.30;33.25;;;;;;;;;;5086710;28;20414;-81
2023/12/09 00:29:43;;;;;;;86.45;31.95;;;;;;;;;;5104065;28;20419;-80
2023/12/09 00:32:09;;;;;;;87.95;31.95;;;;;;;;;;5070987;28;20420;-81
2023/12/09 00:34:35;;;;;;;83.90;32.05;;;;;;;;;;5071391;28;20408;-81
2023/12/09 00:37:01;;;;;;;81.38;31.75;;;;;;;;;;5070956;28;20426;-81
2023/12/09 00:39:27;;;;;;;85.38;32.05;;;;;;;;;;5070934;28;20503;-81
2023/12/09 00:41:53;;;;;;;90.35;32.03;;;;;;;;;;5061652;28;20423;-81
2023/12/09 00:44:20;;;;;;;87.38;31.98;;;;;;;;;;5070100;28;20419;-81
2023/12/09 00:46:47;;;;;;;84.22;30.60;;;;;;;;;;5037266;28;20895;-81
2023/12/09 00:49:13;;;;;;;73.57;29.17;;;;;;;;;;5071151;28;20415;-81
2023/12/09 00:51:39;;;;;;;84.38;30.80;;;;;;;;;;5073430;28;20414;-80
2023/12/09 00:54:05;;;;;;;78.25;29.75;;;;;;;;;;5070270;28;20453;-81
2023/12/09 00:56:32;;;;;;;78.75;30.73;;;;;;;;;;5074128;28;20426;-81
2023/12/09 00:58:58;;;;;;;74.35;28.70;;;;;;;;;;5072362;28;20969;-81
2023/12/09 01:01:24;;;;;;;73.82;29.48;;;;;;;;;;5070572;28;20416;-82
2023/12/09 01:03:50;;;;;;;83.07;29.83;;;;;;;;;;5053658;28;20400;-81
2023/12/09 01:06:16;;;;;;;76.63;29.92;;;;;;;;;;5070610;28;20497;-81
2023/12/09 01:08:42;;;;;;;77.78;29.13;;;;;;;;;;5068851;28;20396;-81
2023/12/09 01:11:08;;;;;;;74.95;29.75;;;;;;;;;;5054129;28;20529;-81
2023/12/09 01:13:34;;;;;;;75.28;28.98;;;;;;;;;;5070729;28;20461;-81
2023/12/09 01:16:00;;;;;;;80.07;28.00;;;;;;;;;;5068591;28;20416;-81
2023/12/09 01:18:26;;;;;;;79.80;29.77;;;;;;;;;;5070558;28;20432;-81
2023/12/09 01:20:52;;;;;;;74.75;26.88;;;;;;;;;;5052122;28;20435;-81
2023/12/09 01:23:18;;;;;;;69.82;28.77;;;;;;;;;;5070599;28;20403;-81
2023/12/09 01:25:45;;;;;;;80.25;26.67;;;;;;;;;;5045338;28;20401;-81
2023/12/09 01:28:11;;;;;;;69.67;26.77;;;;;;;;;;5084179;28;20898;-81
2023/12/09 01:30:37;;;;;;;66.63;26.75;;;;;;;;;;5087085;28;20439;-81
2023/12/09 01:33:03;;;;;;;64.30;26.10;;;;;;;;;;5069574;28;20826;-81
2023/12/09 01:35:29;;;;;;;65.70;27.33;;;;;;;;;;5072094;28;20403;-81
2023/12/09 01:37:55;;;;;;;73.53;26.50;;;;;;;;;;5085618;28;20998;-80
2023/12/09 01:40:22;;;;;;;59.45;24.52;;;;;;;;;;5086986;28;20976;-76
2023/12/09 01:42:48;;;;;;;62.22;25.77;;;;;;;;;;5069500;28;20402;-76
2023/12/09 01:45:14;;;;;;;64.28;26.23;;;;;;;;;;5069314;28;20416;-77
2023/12/09 01:47:40;;;;;;;72.65;25.60;;;;;;;;;;5068430;28;20507;-76
2023/12/09 01:50:07;;;;;;;60.28;25.95;;;;;;;;;;5070029;28;20410;-77
2023/12/09 01:52:33;;;;;;;64.38;25.17;;;;;;;;;;5069397;28;20404;-77
2023/12/09 01:55:00;;;;;;;62.43;25.50;;;;;;;;;;5069704;28;21133;-77
2023/12/09 01:57:26;;;;;;;68.10;26.23;;;;;;;;;;5053304;28;20417;-76
2023/12/09 01:59:52;;;;;;;70.25;25.75;;;;;;;;;;5069481;28;20404;-77
2023/12/09 02:02:18;;;;;;;61.67;25.33;;;;;;;;;;5052274;28;20424;-76
2023/12/09 02:04:45;;;;;;;65.20;25.93;;;;;;;;;;5052296;28;20395;-76
2023/12/09 02:07:11;;;;;;;67.25;26.50;;;;;;;;;;5077207;28;20404;-76
2023/12/09 02:09:39;;;;;;;62.13;24.95;;;;;;;;;;5070503;28;20784;-76
2023/12/09 02:12:05;;;;;;;64.50;25.33;;;;;;;;;;5053721;28;20469;-77
2023/12/09 02:14:45;;;;;;;57.20;24.85;;;;;;;;;;5051315;28;20404;-76
2023/12/09 02:17:18;;;;;;;66.13;26.50;;;;;;;;;;5086381;28;20470;-76
2023/12/09 02:19:44;;;;;;;70.30;26.23;;;;;;;;;;5068731;28;20400;-77
2023/12/09 02:22:11;;;;;;;64.07;25.83;;;;;;;;;;5068494;28;20899;-76
2023/12/09 02:24:37;;;;;;;66.32;26.08;;;;;;;;;;5069683;28;20435;-76
2023/12/09 02:27:09;;;;;;;68.57;25.75;;;;;;;;;;5084995;28;20453;-81
2023/12/09 02:29:40;;;;;;;66.95;25.95;;;;;;;;;;5069733;28;20810;-81
2023/12/09 02:32:07;;;;;;;64.82;26.45;;;;;;;;;;5068338;28;20411;-81
2023/12/09 02:34:37;;;;;;;64.72;25.08;;;;;;;;;;5069841;28;20964;-82
2023/12/09 02:37:05;;;;;;;63.33;25.02;;;;;;;;;;5069312;28;20421;-81
2023/12/09 02:39:31;;;;;;;61.63;24.55;;;;;;;;;;5085521;28;20919;-81
2023/12/09 02:41:58;;;;;;;64.30;23.90;;;;;;;;;;5068762;28;20544;-81
2023/12/09 02:44:25;;;;;;;60.88;23.88;;;;;;;;;;5053325;28;20406;-81
2023/12/09 02:46:55;;;;;;;57.97;23.13;;;;;;;;;;5068710;28;20407;-81
2023/12/09 02:49:22;;;;;;;60.78;22.63;;;;;;;;;;5069799;28;20403;-81
2023/12/09 02:51:48;;;;;;;65.53;23.75;;;;;;;;;;5071833;28;20452;-81
2023/12/09 02:54:14;;;;;;;56.17;22.30;;;;;;;;;;5069430;28;20411;-81
2023/12/09 02:56:40;;;;;;;57.88;22.70;;;;;;;;;;5068567;28;20427;-77
2023/12/09 02:59:06;;;;;;;55.40;22.10;;;;;;;;;;5072836;28;20449;-77
2023/12/09 03:01:32;;;;;;;52.15;22.05;;;;;;;;;;5055034;28;20510;-77
2023/12/09 03:03:58;;;;;;;53.65;22.90;;;;;;;;;;5072793;28;20403;-77
2023/12/09 03:06:24;;;;;;;47.75;21.33;;;;;;;;;;5073105;28;20444;-81
2023/12/09 03:08:50;;;;;;;49.88;21.17;;;;;;;;;;5072542;28;20571;-81
2023/12/09 03:11:16;;;;;;;56.28;20.98;;;;;;;;;;5070398;28;20478;-82
2023/12/09 03:13:42;;;;;;;51.80;21.85;;;;;;;;;;5073003;28;20404;-81
2023/12/09 03:16:08;;;;;;;58.38;21.60;;;;;;;;;;5093175;28;20414;-81
2023/12/09 03:18:34;;;;;;;53.47;21.80;;;;;;;;;;5055933;28;20795;-82
2023/12/09 03:21:00;;;;;;;51.55;21.60;;;;;;;;;;5089743;28;20399;-81
2023/12/09 03:23:27;;;;;;;52.45;22.48;;;;;;;;;;5072720;28;20400;-81
2023/12/09 03:25:53;;;;;;;53.53;21.25;;;;;;;;;;5072610;28;20408;-81
2023/12/09 03:28:19;;;;;;;53.08;22.20;;;;;;;;;;5105728;28;20922;-81
2023/12/09 03:30:45;;;;;;;47.05;20.70;;;;;;;;;;5058207;28;20912;-81
2023/12/09 03:33:11;;;;;;;48.90;21.23;;;;;;;;;;5074096;28;20403;-81
2023/12/09 03:35:37;;;;;;;56.33;23.87;;;;;;;;;;5071057;28;20926;-81
2023/12/09 03:38:03;;;;;;;45.70;21.00;;;;;;;;;;5071279;28;20451;-79
2023/12/09 03:40:29;;;;;;;52.13;21.75;;;;;;;;;;5075549;28;20916;-80
2023/12/09 03:42:55;;;;;;;58.70;22.25;;;;;;;;;;5072065;28;20934;-80
2023/12/09 03:45:21;;;;;;;55.83;21.83;;;;;;;;;;5070613;28;20970;-80
2023/12/09 03:47:47;;;;;;;48.42;22.42;;;;;;;;;;5072047;28;20400;-79
2023/12/09 03:50:13;;;;;;;53.53;22.27;;;;;;;;;;5055614;28;20411;-80
2023/12/09 03:52:39;;;;;;;48.45;21.55;;;;;;;;;;5055571;28;20831;-80
2023/12/09 03:55:06;;;;;;;49.90;21.03;;;;;;;;;;5072108;28;20911;-80
2023/12/09 03:57:33;;;;;;;53.33;22.05;;;;;;;;;;5054601;28;20420;-80
2023/12/09 03:59:59;;;;;;;47.83;20.98;;;;;;;;;;5053372;28;20416;-80
2023/12/09 04:02:25;;;;;;;56.35;21.58;;;;;;;;;;5054907;28;20970;-81
2023/12/09 04:04:51;;;;;;;58.38;22.15;;;;;;;;;;5072245;28;20743;-81
2023/12/09 04:07:17;;;;;;;50.05;20.73;;;;;;;;;;5071946;28;20407;-80
2023/12/09 04:09:43;;;;;;;52.13;21.00;;;;;;;;;;5037507;28;20418;-81
2023/12/09 04:12:09;;;;;;;54.10;20.35;;;;;;;;;;5071940;28;22146;-81
2023/12/09 04:14:36;;;;;;;48.77;20.20;;;;;;;;;;5052869;28;20438;-81
2023/12/09 04:17:02;;;;;;;49.10;20.83;;;;;;;;;;5071122;28;20997;-81
2023/12/09 04:19:28;;;;;;;54.10;22.48;;;;;;;;;;5071084;28;20457;-81
2023/12/09 04:21:54;;;;;;;56.22;20.40;;;;;;;;;;5071672;28;20404;-81
2023/12/09 04:24:20;;;;;;;51.30;20.48;;;;;;;;;;5071037;28;20465;-81
2023/12/09 04:26:46;;;;;;;49.85;19.50;;;;;;;;;;5071213;28;20400;-81
2023/12/09 04:29:12;;;;;;;50.83;19.83;;;;;;;;;;5054555;28;20461;-80
2023/12/09 04:31:39;;;;;;;50.90;20.90;;;;;;;;;;5037532;28;20424;-81
2023/12/09 04:34:05;;;;;;;45.58;18.85;;;;;;;;;;5070745;28;20490;-78
2023/12/09 04:36:31;;;;;;;48.97;18.15;;;;;;;;;;5055019;28;20430;-78
2023/12/09 04:38:57;;;;;;;46.63;19.30;;;;;;;;;;5070700;28;20392;-78
2023/12/09 04:41:23;;;;;;;49.50;18.35;;;;;;;;;;5070688;28;20410;-77
2023/12/09 04:43:50;;;;;;;44.53;18.35;;;;;;;;;;5054964;28;20402;-77
2023/12/09 04:46:16;;;;;;;43.75;17.83;;;;;;;;;;5071577;28;20407;-77
2023/12/09 04:48:43;;;;;;;49.47;17.97;;;;;;;;;;5103338;28;20933;-77
2023/12/09 04:51:09;;;;;;;42.03;17.92;;;;;;;;;;5087819;28;20674;-77
2023/12/09 04:53:35;;;;;;;48.20;17.52;;;;;;;;;;5071101;28;20446;-77
2023/12/09 04:56:01;;;;;;;45.03;17.40;;;;;;;;;;5070383;28;20431;-77
2023/12/09 04:58:27;;;;;;;47.95;17.80;;;;;;;;;;5070934;28;20840;-77
2023/12/09 05:00:53;;;;;;;47.20;16.63;;;;;;;;;;5037438;28;20474;-78
2023/12/09 05:03:20;;;;;;;41.35;17.50;;;;;;;;;;5070374;28;20479;-82
2023/12/09 05:05:46;;;;;;;47.45;17.15;;;;;;;;;;5054304;28;20427;-82
2023/12/09 05:08:12;;;;;;;43.88;16.80;;;;;;;;;;5070291;28;20399;-83
2023/12/09 05:10:38;;;;;;;46.05;17.13;;;;;;;;;;5070708;28;20411;-81
2023/12/09 05:13:04;;;;;;;42.97;16.05;;;;;;;;;;5071470;28;20407;-81
2023/12/09 05:15:30;;;;;;;47.92;17.70;;;;;;;;;;5035817;28;20474;-82
2023/12/09 05:17:56;;;;;;;45.03;16.80;;;;;;;;;;5052415;28;20507;-82
2023/12/09 05:20:23;;;;;;;43.90;16.88;;;;;;;;;;5097857;27;20448;-77
2023/12/09 05:22:49;;;;;;;41.78;16.33;;;;;;;;;;5053431;28;20464;-77
2023/12/09 05:25:15;;;;;;;46.70;16.58;;;;;;;;;;5070311;28;20400;-77
2023/12/09 05:27:41;;;;;;;38.40;15.50;;;;;;;;;;5070114;28;20907;-77
2023/12/09 05:30:07;;;;;;;42.85;15.70;;;;;;;;;;5070417;28;20540;-77
2023/12/09 05:32:33;;;;;;;46.00;16.35;;;;;;;;;;5070409;28;20407;-77
2023/12/09 05:34:59;;;;;;;44.50;16.27;;;;;;;;;;5070393;28;20426;-77
2023/12/09 05:37:25;;;;;;;45.83;15.90;;;;;;;;;;5070615;28;20419;-78
2023/12/09 05:39:51;;;;;;;39.50;16.05;;;;;;;;;;5052757;28;20459;-77
2023/12/09 05:42:17;;;;;;;44.80;16.05;;;;;;;;;;5085320;28;20431;-78
2023/12/09 05:44:43;;;;;;;39.92;15.52;;;;;;;;;;5053772;28;20406;-77
2023/12/09 05:47:10;;;;;;;38.70;15.18;;;;;;;;;;5052952;28;20450;-77
2023/12/09 05:49:36;;;;;;;38.10;15.05;;;;;;;;;;5087279;28;20410;-77
2023/12/09 05:52:02;;;;;;;37.70;15.63;;;;;;;;;;5103622;28;20482;-76
2023/12/09 05:54:31;;;;;;;39.40;15.23;;;;;;;;;;5070742;28;20415;-76
2023/12/09 05:56:57;;;;;;;44.67;15.90;;;;;;;;;;5103752;27;20772;-76
2023/12/09 05:59:23;;;;;;;43.97;16.10;;;;;;;;;;5069101;28;20838;-76
2023/12/09 06:01:49;;;;;;;45.13;16.87;;;;;;;;;;5052187;28;20423;-76
2023/12/09 06:04:16;;;;;;;41.75;15.40;;;;;;;;;;5086444;28;20422;-77
2023/12/09 06:06:42;;;;;;;39.75;16.27;;;;;;;;;;5070299;28;20404;-77
2023/12/09 06:09:09;;;;;;;52.75;16.83;;;;;;;;;;5070471;28;20392;-77
2023/12/09 06:11:35;;;;;;;43.70;15.30;;;;;;;;;;5069433;28;20406;-77
2023/12/09 06:14:01;;;;;;;40.20;15.35;;;;;;;;;;5068490;28;20925;-77
2023/12/09 06:16:27;;;;;;;36.95;15.23;;;;;;;;;;5053154;28;20537;-77
2023/12/09 06:18:53;;;;;;;47.40;15.82;;;;;;;;;;5069277;28;20396;-77
2023/12/09 06:21:23;;;;;;;43.55;16.17;;;;;;;;;;5053816;28;20478;-77
2023/12/09 06:23:49;;;;;;;39.92;14.65;;;;;;;;;;5037209;28;20569;-80
2023/12/09 06:26:16;;;;;;;46.15;15.90;;;;;;;;;;5069913;28;20403;-80
2023/12/09 06:28:42;;;;;;;38.22;15.00;;;;;;;;;;5069686;28;20400;-80
2023/12/09 06:31:10;;;;;;;39.15;15.77;;;;;;;;;;5051234;28;20441;-80
2023/12/09 06:33:37;;;;;;;41.65;15.30;;;;;;;;;;5073281;28;20407;-80
2023/12/09 06:36:03;;;;;;;35.93;14.20;;;;;;;;;;5090538;28;20403;-80
2023/12/09 06:38:29;;;;;;;38.78;14.82;;;;;;;;;;5074500;28;20420;-80
2023/12/09 06:40:55;;;;;;;36.55;14.20;;;;;;;;;;5072719;28;20410;-80
2023/12/09 06:43:21;;;;;;;39.03;14.35;;;;;;;;;;5073626;28;20400;-80
2023/12/09 06:45:47;;;;;;;43.13;14.75;;;;;;;;;;5073094;28;20413;-80
2023/12/09 06:48:13;;;;;;;36.50;14.30;;;;;;;;;;5072115;28;20586;-80
2023/12/09 06:50:40;;;;;;;39.03;13.80;;;;;;;;;;5039176;28;20891;-80
2023/12/09 06:53:06;;;;;;;40.05;14.65;;;;;;;;;;5073088;28;20465;-80
2023/12/09 06:55:32;;;;;;;34.35;13.85;;;;;;;;;;5072839;28;20446;-80
2023/12/09 06:57:58;;;;;;;37.83;13.88;;;;;;;;;;5055815;28;20424;-80
2023/12/09 07:00:25;;;;;;;33.50;14.40;;;;;;;;;;5073556;28;20485;-81
2023/12/09 07:02:51;;;;;;;37.63;14.32;;;;;;;;;;5072367;28;20414;-80
2023/12/09 07:05:17;;;;;;;35.17;14.53;;;;;;;;;;5090200;28;20483;-80
2023/12/09 07:07:43;;;;;;;38.15;13.82;;;;;;;;;;5073090;28;20415;-77
2023/12/09 07:10:09;;;;;;;37.05;13.80;;;;;;;;;;5039898;28;20812;-77
2023/12/09 07:12:35;;;;;;;36.65;14.10;;;;;;;;;;5053160;28;20516;-77
2023/12/09 07:15:01;;;;;;;34.85;14.90;;;;;;;;;;5105586;28;20921;-77
2023/12/09 07:17:27;;;;;;;34.63;14.30;;;;;;;;;;5088953;28;20423;-77
2023/12/09 07:19:55;;;;;;;35.33;13.40;;;;;;;;;;5054435;28;20570;-75
2023/12/09 07:22:22;;;;;;;34.63;14.63;;;;;;;;;;5073309;28;20418;-75
2023/12/09 07:24:48;;;;;;;34.30;13.57;;;;;;;;;;5055292;28;20410;-75
2023/12/09 07:27:14;;;;;;;37.10;14.13;;;;;;;;;;5067770;28;20413;-75
2023/12/09 07:29:40;;;;;;;39.60;14.52;;;;;;;;;;5072799;28;20400;-75
2023/12/09 07:32:06;;;;;;;32.03;13.30;;;;;;;;;;5069099;28;20945;-76
2023/12/09 07:34:32;;;;;;;33.38;13.32;;;;;;;;;;5072523;28;20457;-76
2023/12/09 07:36:58;;;;;;;34.67;11.90;;;;;;;;;;5065707;28;20478;-76
2023/12/09 07:39:24;;;;;;;37.42;13.43;;;;;;;;;;5055906;28;20419;-76
2023/12/09 07:41:51;;;;;;;34.25;12.60;;;;;;;;;;5072173;28;20395;-75
2023/12/09 07:44:20;;;;;;;40.65;12.48;;;;;;;;;;5070009;28;20415;-76
2023/12/09 07:46:47;;;;;;;37.58;11.73;;;;;;;;;;5071833;28;20419;-77
2023/12/09 07:49:13;;;;;;;32.97;11.57;;;;;;;;;;5072462;28;20461;-77
2023/12/09 07:51:39;;;;;;;29.95;11.43;;;;;;;;;;5104868;28;20400;-77
2023/12/09 07:54:05;;;;;;;35.88;12.60;;;;;;;;;;5056177;28;20807;-76
2023/12/09 07:56:31;;;;;;;29.47;11.50;;;;;;;;;;5055624;28;20445;-77
2023/12/09 07:58:57;;;;;;;31.73;11.80;;;;;;;;;;5072331;28;20400;-77
2023/12/09 08:01:23;;;;;;;28.90;11.30;;;;;;;;;;5056482;28;20457;-76
2023/12/09 08:03:49;;;;;;;34.30;11.67;;;;;;;;;;5055343;28;20752;-77
2023/12/09 08:06:16;;;;;;;36.58;12.35;;;;;;;;;;5070423;28;20399;-77
2023/12/09 08:08:42;;;;;;;31.30;11.55;;;;;;;;;;5070719;28;20406;-76
2023/12/09 08:11:08;;;;;;;31.03;11.63;;;;;;;;;;5053637;28;20404;-76
2023/12/09 08:13:34;;;;;;;30.45;11.75;;;;;;;;;;5054528;28;20406;-77
2023/12/09 08:16:00;;;;;;;31.73;11.20;;;;;;;;;;5071943;28;20412;-77
2023/12/09 08:18:26;;;;;;;34.45;11.90;;;;;;;;;;5053206;28;20438;-76
2023/12/09 08:20:52;;;;;;;30.67;11.20;;;;;;;;;;5070501;28;20391;-76
2023/12/09 08:23:19;;;;;;;33.97;11.93;;;;;;;;;;5070376;28;20399;-76
2023/12/09 08:25:45;;;;;;;38.60;11.98;;;;;;;;;;5088295;28;20396;-76
2023/12/09 08:28:11;;;;;;;33.72;11.90;;;;;;;;;;5053869;28;20502;-76
2023/12/09 08:30:39;;;;;;;31.93;12.27;;;;;;;;;;5071797;28;20408;-76
2023/12/09 08:33:05;;;;;;;31.63;11.17;;;;;;;;;;5056895;28;20409;-76
2023/12/09 08:35:31;;;;;;;35.70;11.77;;;;;;;;;;5038276;28;20725;-76
2023/12/09 08:37:57;;;;;;;33.78;12.45;;;;;;;;;;5054001;28;20914;-76
2023/12/09 08:40:23;;;;;;;34.30;10.80;;;;;;;;;;5070770;28;20778;-76
2023/12/09 08:42:49;;;;;;;28.67;11.00;;;;;;;;;;5070220;28;20915;-76
2023/12/09 08:45:16;;;;;;;31.67;11.60;;;;;;;;;;5069543;28;20423;-76
2023/12/09 08:47:42;;;;;;;25.40;10.88;;;;;;;;;;5054210;28;20433;-76
2023/12/09 08:50:09;;;;;;;25.13;10.02;;;;;;;;;;5105869;28;20411;-81
2023/12/09 08:52:35;;;;;;;29.70;11.07;;;;;;;;;;5054960;28;20411;-82
2023/12/09 08:55:02;;;;;;;25.45;9.88;;;;;;;;;;5054703;28;20408;-82
2023/12/09 08:57:28;;;;;;;32.13;9.63;;;;;;;;;;5068679;28;20491;-82
2023/12/09 08:59:54;;;;;;;27.33;10.60;;;;;;;;;;5070434;28;20403;-81
2023/12/09 09:02:26;;;;;;;25.85;9.93;;;;;;;;;;5085376;28;21647;-81
2023/12/09 09:04:53;;;;;;;26.48;9.05;;;;;;;;;;5087763;28;20490;-81
2023/12/09 09:07:19;;;;;;;24.98;9.20;;;;;;;;;;5070326;28;20399;-81
2023/12/09 09:09:45;;;;;;;26.45;9.00;;;;;;;;;;5055434;28;20434;-81
2023/12/09 09:12:11;;;;;;;24.85;9.65;;;;;;;;;;5086330;28;20407;-81
2023/12/09 09:14:37;;;;;;;27.30;8.93;;;;;;;;;;5070190;28;20729;-81
2023/12/09 09:17:04;;;;;;;20.83;8.40;;;;;;;;;;5055114;28;20435;-80
2023/12/09 09:19:30;;;;;;;27.13;8.98;;;;;;;;;;5052924;28;20446;-80
2023/12/09 09:21:56;;;;;;;26.80;7.97;;;;;;;;;;5048107;28;20435;-81
2023/12/09 09:24:22;;;;;;;24.63;7.82;;;;;;;;;;5084802;28;20407;-80
2023/12/09 09:26:48;;;;;;;23.40;7.93;;;;;;;;;;5080375;28;20499;-81
2023/12/09 09:29:15;;;;;;;26.13;8.03;;;;;;;;;;5054101;28;20461;-81
2023/12/09 09:31:41;;;;;;;21.10;7.68;;;;;;;;;;5086163;28;20399;-75
2023/12/09 09:34:07;;;;;;;27.35;7.85;;;;;;;;;;5065679;28;20420;-75
2023/12/09 09:36:33;;;;;;;22.30;7.40;;;;;;;;;;5068362;28;20400;-76
2023/12/09 09:38:59;;;;;;;24.80;8.10;;;;;;;;;;5070374;28;20802;-76
2023/12/09 09:41:30;;;;;;;22.95;7.20;;;;;;;;;;5069378;28;20859;-76
2023/12/09 09:44:01;;;;;;;20.38;7.75;;;;;;;;;;5041516;28;20911;-76
2023/12/09 09:46:27;;;;;;;23.83;7.60;;;;;;;;;;5069653;28;20498;-76
2023/12/09 09:48:54;;;;;;;22.23;7.00;;;;;;;;;;5085809;28;20400;-81
2023/12/09 09:51:28;;;;;;;25.05;7.10;;;;;;;;;;5066505;28;20395;-81
2023/12/09 09:54:08;;;;;;;22.40;7.15;;;;;;;;;;5059470;28;20413;-81
2023/12/09 09:56:35;;;;;;;27.25;7.43;;;;;;;;;;5103514;28;20411;-82
2023/12/09 09:59:03;;;;;;;20.42;6.68;;;;;;;;;;5069008;28;20411;-81
2023/12/09 10:01:31;;;;;;;20.50;6.75;;;;;;;;;;5073148;28;20420;-81
2023/12/09 10:03:57;;;;;;;25.23;7.30;;;;;;;;;;5070217;28;20487;-81
2023/12/09 10:06:23;;;;;;;16.85;6.20;;;;;;;;;;5068643;28;20455;-81
2023/12/09 10:08:49;;;;;;;22.55;6.95;;;;;;;;;;5069221;28;20760;-81
2023/12/09 10:11:16;;;;;;;20.80;6.30;;;;;;;;;;5084833;28;20399;-81
2023/12/09 10:13:44;;;;;;;20.90;6.32;;;;;;;;;;5055513;28;20399;-81
2023/12/09 10:16:10;;;;;;;22.60;6.65;;;;;;;;;;5101582;28;20405;-81
2023/12/09 10:18:36;;;;;;;16.92;5.82;;;;;;;;;;5068703;28;20435;-81
2023/12/09 10:21:04;;;;;;;22.50;5.93;;;;;;;;;;5068884;28;20451;-81
2023/12/09 10:23:31;;;;;;;20.83;5.77;;;;;;;;;;5074056;28;21009;-81
2023/12/09 10:25:58;;;;;;;18.75;5.50;;;;;;;;;;5071967;28;20753;-81
2023/12/09 10:28:24;;;;;;;19.95;5.65;;;;;;;;;;5067077;28;20403;-81
2023/12/09 10:30:51;;;;;;;20.33;5.97;;;;;;;;;;5068764;28;20411;-81
2023/12/09 10:33:17;;;;;;;23.50;5.38;;;;;;;;;;5067994;28;20983;-81
2023/12/09 10:35:44;;;;;;;17.45;6.03;;;;;;;;;;5068900;28;20412;-81
2023/12/09 10:38:10;;;;;;;16.92;5.60;;;;;;;;;;5070100;28;20423;-81
2023/12/09 10:40:36;;;;;;;17.67;5.65;;;;;;;;;;5069361;28;20887;-81
2023/12/09 10:43:03;;;;;;;21.60;5.50;;;;;;;;;;5052781;28;20457;-80
2023/12/09 10:45:29;;;;;;;13.68;4.95;;;;;;;;;;5103421;28;20403;-80
2023/12/09 10:47:55;;;;;;;15.73;4.83;;;;;;;;;;5069348;28;20408;-80
2023/12/09 10:50:22;;;;;;;17.83;5.10;;;;;;;;;;5068107;28;20453;-81
2023/12/09 10:53:07;;;;;;;20.55;5.03;;;;;;;;;;5052764;28;20400;-79
2023/12/09 10:55:33;;;;;;;17.92;4.63;;;;;;;;;;5068601;28;20891;-75
2023/12/09 10:58:00;;;;;;;15.35;4.68;;;;;;;;;;5068587;28;20430;-75
2023/12/09 11:00:30;;;;;;;16.88;4.85;;;;;;;;;;5067754;28;20495;-75
2023/12/09 11:02:56;;;;;;;16.40;5.07;;;;;;;;;;5054071;28;20609;-75
2023/12/09 11:05:22;;;;;;;14.82;4.10;;;;;;;;;;5067606;28;20508;-75
2023/12/09 11:07:49;;;;;;;17.23;4.37;;;;;;;;;;5085770;28;20415;-76
2023/12/09 11:10:15;;;;;;;15.13;4.38;;;;;;;;;;5068316;28;20410;-75
2023/12/09 11:12:44;;;;;;;16.48;4.30;;;;;;;;;;5067565;28;20395;-75
2023/12/09 11:15:13;;;;;;;13.52;3.83;;;;;;;;;;5068465;28;20537;-76
2023/12/09 11:17:41;;;;;;;13.07;4.00;;;;;;;;;;5070614;28;20477;-75
2023/12/09 11:20:13;;;;;;;14.93;4.00;;;;;;;;;;5073266;28;20426;-75
2023/12/09 11:22:41;;;;;;;10.23;3.63;;;;;;;;;;5072334;28;20918;-75
2023/12/09 11:25:27;;;;;;;14.27;4.72;;;;;;;;;;5072168;28;20396;-75
2023/12/09 11:27:54;;;;;;;16.48;4.05;;;;;;;;;;5107079;28;20434;-80
2023/12/09 11:30:33;;;;;;;15.77;4.47;;;;;;;;;;5072935;28;20407;-79
2023/12/09 11:33:02;;;;;;;12.63;4.38;;;;;;;;;;5110471;28;20487;-80
2023/12/09 11:35:29;;;;;;;14.70;3.78;;;;;;;;;;5077352;28;20436;-80
2023/12/09 11:37:57;;;;;;;14.80;3.30;;;;;;;;;;5071471;28;20426;-81
2023/12/09 11:40:23;;;;;;;16.02;3.92;;;;;;;;;;5074826;28;20431;-80
2023/12/09 11:42:49;;;;;;;16.42;4.50;;;;;;;;;;5069254;28;20425;-81
2023/12/09 11:45:15;;;;;;;11.48;3.20;;;;;;;;;;5071634;28;20472;-80
2023/12/09 11:47:42;;;;;;;16.02;3.55;;;;;;;;;;5082849;28;20484;-79
2023/12/09 11:50:08;;;;;;;10.85;3.55;;;;;;;;;;5073955;28;20468;-80
2023/12/09 11:52:35;;;;;;;11.20;3.10;;;;;;;;;;5078932;28;20405;-80
2023/12/09 11:55:02;;;;;;;10.30;3.38;;;;;;;;;;5103291;28;20413;-80
2023/12/09 11:57:29;;;;;;;14.70;3.40;;;;;;;;;;5110405;27;20431;-80
2023/12/09 11:59:55;;;;;;;15.88;3.30;;;;;;;;;;5072277;28;20962;-80
2023/12/09 12:02:21;;;;;;;13.63;3.45;;;;;;;;;;5072288;28;20503;-80
2023/12/09 12:04:47;;;;;;;13.73;3.53;;;;;;;;;;5089574;28;20475;-80
2023/12/09 12:07:14;;;;;;;10.00;3.50;;;;;;;;;;5054755;28;20431;-80
2023/12/09 12:09:40;;;;;;;10.80;3.13;;;;;;;;;;5072274;28;20457;-80
2023/12/09 12:12:06;;;;;;;13.55;3.63;;;;;;;;;;5088824;28;20404;-80
2023/12/09 12:14:32;;;;;;;11.55;3.22;;;;;;;;;;5071734;28;22646;-78
2023/12/09 12:16:59;;;;;;;13.30;3.00;;;;;;;;;;5055308;28;20466;-80
2023/12/09 12:19:30;;;;;;;11.57;3.20;;;;;;;;;;5066109;28;20499;-80
2023/12/09 12:21:56;;;;;;;11.65;3.10;;;;;;;;;;5112525;27;20471;-81
2023/12/09 12:24:22;;;;;;;10.73;3.15;;;;;;;;;;5088610;28;20400;-80
2023/12/09 12:26:48;;;;;;;9.50;3.20;;;;;;;;;;5076624;28;20412;-80
2023/12/09 12:29:18;;;;;;;11.32;3.42;;;;;;;;;;5070665;28;20403;-81
2023/12/09 12:31:44;;;;;;;11.88;3.22;;;;;;;;;;5078076;28;20413;-80
2023/12/09 12:34:14;;;;;;;9.52;3.20;;;;;;;;;;5070766;28;20759;-80
2023/12/09 12:36:42;;;;;;;12.38;3.45;;;;;;;;;;5106910;27;20436;-80
2023/12/09 12:39:08;;;;;;;10.68;3.20;;;;;;;;;;5071136;28;20400;-80
2023/12/09 12:41:34;;;;;;;12.73;3.55;;;;;;;;;;5058499;28;20399;-81
2023/12/09 12:44:00;;;;;;;11.68;3.83;;;;;;;;;;5089141;28;20404;-79
2023/12/09 12:46:27;;;;;;;12.32;3.67;;;;;;;;;;5109558;27;20818;-81
2023/12/09 12:48:53;;;;;;;10.13;3.40;;;;;;;;;;5078983;28;20404;-80
2023/12/09 12:51:20;;;;;;;14.50;3.65;;;;;;;;;;5102349;28;20464;-80
2023/12/09 12:53:46;;;;;;;11.40;3.60;;;;;;;;;;5092735;28;20490;-81
2023/12/09 12:56:12;;;;;;;11.20;3.55;;;;;;;;;;5075872;28;20407;-80
2023/12/09 12:58:39;;;;;;;14.55;3.95;;;;;;;;;;5059465;28;20427;-80
2023/12/09 13:01:05;;;;;;;10.73;3.45;;;;;;;;;;5072977;28;20421;-80
2023/12/09 13:03:33;;;;;;;13.75;3.80;;;;;;;;;;5074155;28;20763;-80
2023/12/09 13:05:59;;;;;;;11.82;3.40;;;;;;;;;;5069663;28;20892;-80
2023/12/09 13:08:28;;;;;;;11.18;3.15;;;;;;;;;;5078167;28;20483;-80
2023/12/09 13:10:54;;;;;;;12.53;3.47;;;;;;;;;;5101381;27;20491;-80
2023/12/09 13:13:20;;;;;;;10.38;3.15;;;;;;;;;;5076352;28;20403;-81
2023/12/09 13:15:46;;;;;;;11.45;3.22;;;;;;;;;;5088128;28;20408;-82
2023/12/09 13:18:13;;;;;;;9.07;3.20;;;;;;;;;;5075164;28;20443;-82
2023/12/09 13:20:39;;;;;;;11.88;3.67;;;;;;;;;;5053379;28;20496;-81
2023/12/09 13:23:05;;;;;;;7.43;3.07;;;;;;;;;;5070337;28;20562;-81
2023/12/09 13:25:32;;;;;;;11.40;3.25;;;;;;;;;;5070089;28;20403;-81
2023/12/09 13:27:58;;;;;;;11.17;3.30;;;;;;;;;;5070682;28;20798;-81
2023/12/09 13:30:25;;;;;;;9.52;3.13;;;;;;;;;;5069768;28;20419;-81
2023/12/09 13:32:52;;;;;;;10.25;3.65;;;;;;;;;;5070315;28;20499;-80
2023/12/09 13:35:18;;;;;;;14.20;4.18;;;;;;;;;;5099259;27;20476;-80
2023/12/09 13:37:44;;;;;;;12.40;4.22;;;;;;;;;;5087174;28;21298;-80
2023/12/09 13:40:11;;;;;;;12.10;3.72;;;;;;;;;;5071369;28;20479;-81
2023/12/09 13:42:37;;;;;;;10.75;3.30;;;;;;;;;;5112067;27;20403;-81
2023/12/09 13:45:04;;;;;;;14.98;3.53;;;;;;;;;;5072400;28;20763;-81
2023/12/09 13:47:31;;;;;;;11.68;4.22;;;;;;;;;;5086750;28;20410;-81
2023/12/09 13:49:57;;;;;;;13.07;3.90;;;;;;;;;;5069665;28;20439;-81
2023/12/09 13:52:27;;;;;;;15.48;4.45;;;;;;;;;;5084216;28;20442;-80
2023/12/09 13:54:53;;;;;;;13.02;4.70;;;;;;;;;;5070874;28;20446;-81
2023/12/09 13:57:19;;;;;;;11.57;4.00;;;;;;;;;;5102999;28;20419;-81
2023/12/09 13:59:45;;;;;;;12.38;3.67;;;;;;;;;;5070213;28;20395;-80
2023/12/09 14:02:11;;;;;;;15.07;4.13;;;;;;;;;;5069740;28;20912;-80
2023/12/09 14:04:37;;;;;;;11.63;3.50;;;;;;;;;;5069563;28;20396;-79
2023/12/09 14:07:04;;;;;;;11.55;3.80;;;;;;;;;;5088158;28;20406;-81
2023/12/09 14:09:30;;;;;;;11.45;4.03;;;;;;;;;;5068713;28;20469;-81
2023/12/09 14:11:57;;;;;;;13.45;4.47;;;;;;;;;;5069249;28;20422;-82
2023/12/09 14:14:23;;;;;;;14.30;4.40;;;;;;;;;;5085706;28;20491;-81
2023/12/09 14:16:49;;;;;;;15.60;4.20;;;;;;;;;;5053434;28;20729;-81